Flight Track Log - Related Links

Times and Time Zones

All times are in EDT time to prevent confusion due to time zone crossing. See the SWA1451 flight status page for this flight to view local times or setup timezone preferences in your user account.

Time Position Orientation Groundspeed Altitude Reporting Facility
EDT Latitude Longitude Course Direction KTS MPH feet Rate Location/Type
Sun 05:13:56 PM 41.7761 -87.7878 90° East 162 186 2,400  Level Chicago Center
Sun 05:14:58 PM 41.8189 -87.7622 24° Northeast 242 278 3,100 1,403 Climbing Chicago Center
Sun 05:16:00 PM 41.8100 -87.6747 98° East 236 272 5,300 2,806 Climbing Chicago Center
Sun 05:17:02 PM 41.8011 -87.5706 96° East 270 311 8,900 3,312 Climbing Chicago Center
Sun 05:18:05 PM 41.7969 -87.4569 93° East 301 346 12,200 3,408 Climbing Chicago Center
Sun 05:19:00 PM 41.5946 -87.1911 90° East  Level Estimated
Sun 05:19:07 PM 41.7947 -87.2981 91° East 347 399 16,000  Level Chicago Center
Sun 05:20:09 PM 41.7908 -87.1594 92° East 368 423 18,900 1,452 Climbing Chicago Center
Sun 05:21:11 PM 41.7872 -87.0164 92° East 380 437 19,000 387 Climbing Chicago Center
Sun 05:22:13 PM 41.7847 -86.8750 91° East 382 440 19,700 1,161 Climbing Chicago Center
Sun 05:23:15 PM 41.7794 -86.7275 93° East 392 451 21,400 1,984 Climbing Chicago Center
Sun 05:24:17 PM 41.7753 -86.5739 92° East 405 466 23,800 1,984 Climbing Chicago Center
Sun 05:25:19 PM 41.7706 -86.4161 92° East 423 487 25,500 2,323 Climbing Chicago Center
Sun 05:26:21 PM 41.7494 -86.2278 98° East 412 474 28,600 1,694 Climbing Chicago Center
Sun 05:27:23 PM 41.6842 -86.1208 129° Southeast 373 429 29,000 194 Climbing Chicago Center
Sun 05:28:25 PM 41.6200 -86.0128 128° Southeast 373 429 29,000  Level Chicago Center
Sun 05:29:28 PM 41.5556 -85.9050 129° Southeast 375 432 29,000  Level Chicago Center
Sun 05:30:30 PM 41.4908 -85.7972 129° Southeast 376 433 29,000  Level Chicago Center
Sun 05:31:32 PM 41.4111 -85.6694 130° Southeast 378 435 29,000  Level Chicago Center
Sun 05:32:34 PM 41.3453 -85.5617 129° Southeast 381 438 29,000  Level Chicago Center
Sun 05:33:36 PM 41.2792 -85.4542 129° Southeast 381 438 29,000  Level Chicago Center
Sun 05:34:38 PM 41.2122 -85.3467 130° Southeast 380 437 29,000 -97 Level Chicago Center
Sun 05:35:40 PM 41.1331 -85.2189 129° Southeast 377 434 28,800 -871 Descending Chicago Center
Sun 05:36:42 PM 41.0692 -85.1186 130° Southeast 367 422 27,200 -1,694 Descending Chicago Center
Sun 05:37:44 PM 41.0092 -85.0222 130° Southeast 349 402 25,300 -1,452 Descending Chicago Center
Sun 05:38:46 PM 40.9492 -84.9283 130° Southeast 339 390 24,200 -1,008 Descending Chicago Center
Sun 05:39:49 PM 40.8872 -84.8300 130° Southeast 345 397 23,200 -576 Descending Chicago Center
Sun 05:40:51 PM 40.8356 -84.7214 122° Southeast 355 409 23,000 -97 Descending Chicago Center
Sun 05:41:53 PM 40.7894 -84.5706 112° Southeast 369 425 23,000  Level Chicago Center
Sun 05:42:30 PM 40.7697 -84.5072 112° Southeast 374 430 23,000 -364 Level Indianapolis Center
Sun 05:43:32 PM 40.7308 -84.3803 112° Southeast 374 430 22,400 -1,210 Descending Indianapolis Center
Sun 05:44:34 PM 40.6839 -84.2328 113° Southeast 366 421 20,500 -1,839 Descending Indianapolis Center
Sun 05:45:36 PM 40.6458 -84.1106 112° Southeast 362 417 18,600 -2,000 Descending Indianapolis Center
Sun 05:46:37 PM 40.6069 -83.9886 113° Southeast 362 417 16,400 -2,000 Descending Indianapolis Center
Sun 05:47:39 PM 40.5603 -83.8750 118° Southeast 357 411 14,500 -1,597 Descending Indianapolis Center
Sun 05:48:41 PM 40.5025 -83.7836 130° Southeast 331 381 13,100 -1,452 Descending Indianapolis Center
Sun 05:49:43 PM 40.4328 -83.7733 174° South 282 325 11,500 -968 Descending Indianapolis Center
Sun 05:50:45 PM 40.4483 -83.8631 283° West 289 333 11,100 -242 Descending Indianapolis Center
Sun 05:51:47 PM 40.5156 -83.9500 315° West 284 327 11,000 -49 Descending Indianapolis Center
Sun 05:52:48 PM 40.5708 -84.0219 315° West 282 325 11,000  Level Indianapolis Center
Sun 05:53:50 PM 40.6250 -84.0922 315° West 275 316 11,000  Level Indianapolis Center
Sun 05:54:52 PM 40.6800 -84.1631 316° Northwest 276 318 11,000  Level Indianapolis Center
Sun 05:55:54 PM 40.7344 -84.2308 317° Northwest 272 313 11,000  Level Indianapolis Center
Sun 05:56:56 PM 40.7878 -84.2986 316° Northwest 267 307 11,000  Level Indianapolis Center
Sun 05:57:58 PM 40.8703 -84.3331 342° North 310 357 11,000  Level Indianapolis Center
Sun 05:58:59 PM 40.8889 -84.2394 75° East 273 314 11,000  Level Indianapolis Center
Sun 06:00:01 PM 40.8861 -84.1406 92° East 269 310 11,000  Level Indianapolis Center
Sun 06:01:03 PM 40.8764 -84.0447 98° East 265 305 11,000  Level Indianapolis Center
Sun 06:02:05 PM 40.8489 -83.9614 114° Southeast 251 289 11,000  Level Indianapolis Center
Sun 06:03:07 PM 40.8083 -83.8975 130° Southeast 232 267 11,000  Level Indianapolis Center
Sun 06:04:09 PM 40.7650 -83.8356 133° Southeast 229 264 11,000  Level Indianapolis Center
Sun 06:05:11 PM 40.7147 -83.7614 132° Southeast 226 260 11,000  Level Indianapolis Center
Sun 06:06:13 PM 40.6633 -83.7244 151° Southeast 216 249 11,000  Level Indianapolis Center
Sun 06:07:15 PM 40.6072 -83.7069 167° South 206 237 11,000  Level Indianapolis Center
Sun 06:08:17 PM 40.5506 -83.6897 167° South 209 241 11,000 48 Level Indianapolis Center
Sun 06:09:19 PM 40.4931 -83.6739 168° South 211 243 11,100 48 Climbing Indianapolis Center
Sun 06:10:21 PM 40.4378 -83.6561 166° South 207 238 11,100  Level Indianapolis Center
Sun 06:11:22 PM 40.3764 -83.6856 200° South 194 223 11,100  Level Indianapolis Center
Sun 06:12:24 PM 40.3267 -83.7128 203° Southwest 194 223 11,100  Level Indianapolis Center
Sun 06:13:26 PM 40.2764 -83.7392 202° Southwest 195 224 11,100  Level Indianapolis Center
Sun 06:14:28 PM 40.2269 -83.7681 204° Southwest 196 226 11,100  Level Indianapolis Center
Sun 06:15:11 PM 40.1844 -83.7914 203° Southwest 196 226 11,100  Level Indianapolis Center
Sun 06:15:30 PM 40.1767 -83.7947 198° South 195 224 11,100  Level Indianapolis Center
Sun 06:16:32 PM 40.1267 -83.8014 186° South 214 246 11,100  Level Indianapolis Center
Sun 06:17:34 PM 40.1569 -83.6906 70° East 295 339 11,100  Level Indianapolis Center
Sun 06:18:19 PM 40.1914 -83.6200 57° Northeast 298 343 11,100  Level Indianapolis Center
Sun 06:18:36 PM 40.2017 -83.5972 59° Northeast 299 344 11,100 -100 Level Indianapolis Center
Sun 06:19:19 PM 40.2342 -83.5283 58° Northeast 297 342 11,000 -194 Descending Indianapolis Center
Sun 06:19:38 PM 40.2447 -83.5061 58° Northeast 297 342 10,900 -984 Descending Indianapolis Center
Sun 06:20:20 PM 40.2744 -83.4392 60° Northeast 284 327 10,000 -968 Descending Indianapolis Center
Sun 06:20:40 PM 40.2856 -83.4178 56° Northeast 286 329 9,900 -984 Descending Indianapolis Center
Sun 06:21:21 PM 40.3228 -83.3539 53° Northeast 278 320 9,000 -968 Descending Indianapolis Center
Sun 06:21:42 PM 40.3325 -83.3367 53° Northeast 280 322 8,900 -1,000 Descending Indianapolis Center
Sun 06:22:21 PM 40.3625 -83.2700 59° Northeast 273 314 8,000 -1,065 Descending Indianapolis Center
Sun 06:22:44 PM 40.3686 -83.2514 67° East 272 313 7,800 -1,200 Descending Indianapolis Center
Sun 06:23:16 PM 40.3633 -83.1961 97° East 249 287 6,900 -1,161 Descending Indianapolis Center
Sun 06:23:46 PM 40.3428 -83.1828 154° Southeast 250 288 6,600 -1,309 Descending Indianapolis Center
Sun 06:24:11 PM 40.3086 -83.1758 171° South 214 246 5,700 -1,548 Descending Indianapolis Center
Sun 06:24:48 PM 40.2694 -83.1650 168° South 224 258 5,000 -1,333 Descending Indianapolis Center
Sun 06:25:05 PM 40.2494 -83.1581 165° South 231 266 4,500 -1,065 Descending Indianapolis Center
Sun 06:25:50 PM 40.2069 -83.1431 165° South 229 264 3,900 -984 Descending Indianapolis Center
Sun 06:26:06 PM 40.1881 -83.1397 172° South 220 253 3,500 -711 Descending Indianapolis Center
Sun 06:27:06 PM 40.1294 -83.1383 179° South 201 231 3,000 -222 Descending Indianapolis Center
Sun 06:27:54 PM 40.0953 -83.1442 187° South 203 234 3,100  Climbing Indianapolis Center
Sun 06:28:07 PM 40.0783 -83.1464 186° South 180 207 3,000  Descending Indianapolis Center
Sun 06:28:56 PM 40.0442 -83.1342 165° South 199 229 3,100  Climbing Indianapolis Center
Sun 06:29:14 PM 40.0233 -83.1264 164° South 194 223 3,000 -364 Descending Indianapolis Center
Sun 06:30:02 PM 40.0019 -83.0656 115° Southeast 225 259 2,700 -550 Descending Indianapolis Center
Sun 06:31:03 PM 39.9983 -82.9939 94° East 193 222 2,000 -650 Descending Indianapolis Center
Sun 06:32:02 PM 39.9950 -82.9383 94° East 181 208 1,400 -787 Descending Indianapolis Center
Sun 06:32:04 PM 39.9956 -82.9361 72° East 155 178 1,200 -194 Descending Indianapolis Center
Sun 06:33:04 PM 39.9914 -82.8836 96° East 176 203 1,200  Level Indianapolis Center

Login

Don't have an account? Register now (free) for customized features, flight alerts, and more!